createdAt,value
2018-08-07T00:00:34.534Z,10.52
2018-08-07T00:06:29.524Z,10.65
2018-08-07T00:12:24.532Z,10.6
2018-08-07T00:18:19.520Z,11.33
2018-08-07T00:24:14.529Z,11.23
2018-08-07T00:30:09.576Z,10.47
2018-08-07T00:36:04.593Z,10.97
2018-08-07T00:41:59.539Z,10.6
2018-08-07T00:47:54.549Z,11.23
2018-08-07T00:53:49.570Z,11.76
2018-08-07T00:59:44.558Z,11.32
2018-08-07T01:05:39.557Z,11.49
2018-08-07T01:11:34.576Z,11.7
2018-08-07T01:17:29.645Z,11.36
2018-08-07T01:23:24.597Z,11.87
2018-08-07T01:29:19.595Z,11.67
2018-08-07T01:35:14.608Z,11.85
2018-08-07T01:41:09.604Z,11.55
2018-08-07T01:47:04.590Z,10.9
2018-08-07T01:52:59.600Z,10.36
2018-08-07T01:58:54.612Z,11.07
2018-08-07T02:04:49.619Z,10.75
2018-08-07T02:10:44.588Z,11.11
2018-08-07T02:16:39.608Z,10.93
2018-08-07T02:22:34.634Z,10.97
2018-08-07T02:28:29.603Z,11.01
2018-08-07T02:34:24.606Z,11.48
2018-08-07T02:40:19.689Z,12.05
2018-08-07T02:46:14.692Z,12.05
2018-08-07T02:52:09.677Z,11.24
2018-08-07T02:58:04.663Z,11.5
2018-08-07T03:03:59.633Z,11.78
2018-08-07T03:09:54.640Z,11.57
2018-08-07T03:15:49.645Z,12.01
2018-08-07T03:21:44.634Z,12.22
2018-08-07T03:27:39.669Z,12.4
2018-08-07T03:33:34.669Z,11.89
2018-08-07T03:39:29.634Z,12
2018-08-07T03:45:24.657Z,12.13
2018-08-07T03:51:19.697Z,12.97
2018-08-07T03:57:14.677Z,12.47
2018-08-07T04:03:09.661Z,12.84
2018-08-07T04:09:04.675Z,12.61
2018-08-07T04:14:59.722Z,11.9
2018-08-07T04:20:54.676Z,12.78
2018-08-07T04:26:49.699Z,13.07
2018-08-07T04:32:44.733Z,13.1
2018-08-07T04:38:39.706Z,11.65
2018-08-07T04:44:34.686Z,11.59
2018-08-07T04:50:29.724Z,11.88
2018-08-07T04:56:24.720Z,12.1
2018-08-07T05:02:19.704Z,12.63
2018-08-07T05:08:14.758Z,11.79
2018-08-07T05:14:09.767Z,11.43
2018-08-07T05:20:04.737Z,11.73
2018-08-07T05:25:59.797Z,11.7
2018-08-07T05:31:54.734Z,13.56
2018-08-07T05:37:49.730Z,13.27
2018-08-07T05:43:44.778Z,13.07
2018-08-07T05:49:39.755Z,13.65
2018-08-07T05:55:34.740Z,13.24
2018-08-07T06:01:29.741Z,12.73
2018-08-07T06:07:24.770Z,12.82
2018-08-07T06:13:19.766Z,13.57
2018-08-07T06:19:14.842Z,13.34
2018-08-07T06:25:09.774Z,14.02
2018-08-07T06:31:04.757Z,13.4
2018-08-07T06:36:59.787Z,13.82
2018-08-07T06:42:54.814Z,14.16
2018-08-07T06:48:49.783Z,14.83
2018-08-07T06:54:44.767Z,14.19
2018-08-07T07:00:39.780Z,14.58
2018-08-07T07:06:34.804Z,14.16
2018-08-07T07:12:29.788Z,13.68
2018-08-07T07:18:24.786Z,14.23
2018-08-07T07:24:19.814Z,14.75
2018-08-07T07:30:14.799Z,14.11
2018-08-07T07:36:09.804Z,13.99
2018-08-07T07:42:04.801Z,14.71
2018-08-07T07:47:59.863Z,14.31
2018-08-07T07:53:54.871Z,13.75
2018-08-07T07:59:49.834Z,14.03
2018-08-07T08:05:44.977Z,14.92
2018-08-07T08:11:39.824Z,14.63
2018-08-07T08:17:34.816Z,15.5
2018-08-07T08:23:29.812Z,15.91
2018-08-07T08:29:24.949Z,16.51
2018-08-07T08:35:19.893Z,14.53
2018-08-07T08:41:14.841Z,17.04
2018-08-07T08:47:09.921Z,13.87
2018-08-07T08:53:04.838Z,12.79
2018-08-07T08:58:59.857Z,15.87
2018-08-07T09:04:54.901Z,14.79
2018-08-07T09:10:49.946Z,16.21
2018-08-07T09:16:44.856Z,14.27
2018-08-07T09:22:39.917Z,16.02
2018-08-07T09:28:34.875Z,14.6
2018-08-07T09:34:29.864Z,17.09
2018-08-07T09:40:24.892Z,13.51
2018-08-07T09:46:19.872Z,15.48
2018-08-07T09:52:14.933Z,7.63
2018-08-07T09:58:09.912Z,15.6
2018-08-07T10:04:04.907Z,11.4
2018-08-07T10:09:59.933Z,9.39
2018-08-07T10:15:54.907Z,13.81
2018-08-07T10:21:49.951Z,15.36
2018-08-07T10:27:44.897Z,14.94
2018-08-07T10:33:39.938Z,14.97
2018-08-07T10:39:34.975Z,13.72
2018-08-07T10:45:29.910Z,14.69
2018-08-07T10:51:24.917Z,14.48
2018-08-07T10:57:19.946Z,12.72
2018-08-07T11:03:14.962Z,15.19
2018-08-07T11:09:09.967Z,13.27
2018-08-07T11:15:04.928Z,13.79
2018-08-07T11:20:59.988Z,14.31
2018-08-07T11:26:54.930Z,13.94
2018-08-07T11:32:49.969Z,13.14
2018-08-07T11:38:44.945Z,13.75
2018-08-07T11:44:40.065Z,12.94
2018-08-07T11:50:34.963Z,13.17
2018-08-07T11:56:30.013Z,7.75
2018-08-07T12:02:24.983Z,11.4
2018-08-07T12:08:19.995Z,10.75
2018-08-07T12:14:14.973Z,10.69
2018-08-07T12:20:09.987Z,9
2018-08-07T12:26:04.996Z,11.11
2018-08-07T12:31:59.985Z,8.71
2018-08-07T12:37:55.010Z,10.85
2018-08-07T12:43:50.018Z,10.6
2018-08-07T12:49:45.028Z,9.32
2018-08-07T12:55:39.997Z,9.8
2018-08-07T13:01:35.010Z,10.27
2018-08-07T13:07:30.029Z,9.39
2018-08-07T13:13:25.025Z,8.55
2018-08-07T13:19:20.048Z,8.83
2018-08-07T13:25:15.036Z,11.62
2018-08-07T13:31:10.037Z,11.73
2018-08-07T13:37:05.064Z,10.92
2018-08-07T13:43:00.037Z,7.87
2018-08-07T13:48:55.073Z,11.92
2018-08-07T13:54:50.031Z,7.93
2018-08-07T14:00:45.071Z,12.55
2018-08-07T14:06:40.040Z,8.85
2018-08-07T14:12:35.059Z,11.45
2018-08-07T14:18:30.045Z,10.34
2018-08-07T14:24:25.053Z,10.05
2018-08-07T14:30:20.212Z,10.93
2018-08-07T14:36:15.205Z,10.19
2018-08-07T14:42:10.105Z,11.27
2018-08-07T14:48:05.062Z,8.57
2018-08-07T14:54:00.114Z,7.92
2018-08-07T14:59:55.108Z,11.01
2018-08-07T15:05:50.070Z,8.39
2018-08-07T15:11:45.127Z,7.81
2018-08-07T15:17:40.075Z,6.92
2018-08-07T15:23:35.095Z,7.05
2018-08-07T15:29:30.158Z,7.41
2018-08-07T15:35:25.168Z,7.12
2018-08-07T15:41:20.124Z,6.63
2018-08-07T15:47:15.153Z,6.71
2018-08-07T15:53:10.119Z,5.8
2018-08-07T15:59:05.113Z,6.53
2018-08-07T16:05:00.149Z,6.79
2018-08-07T16:10:55.133Z,6.33
2018-08-07T16:16:50.216Z,5.6
2018-08-07T16:22:45.148Z,6.01
2018-08-07T16:28:40.121Z,6.28
2018-08-07T16:34:35.157Z,7.25
2018-08-07T16:40:30.124Z,6.6
2018-08-07T16:46:25.140Z,6.7
2018-08-07T16:52:20.170Z,6.78
2018-08-07T16:58:15.150Z,6.34
2018-08-07T17:04:10.148Z,7.23
2018-08-07T17:10:05.356Z,7.82
2018-08-07T17:16:00.227Z,7.93
2018-08-07T17:21:55.173Z,6.51
2018-08-07T17:27:50.182Z,4.88
2018-08-07T17:33:45.175Z,2.28
2018-08-07T17:39:40.239Z,2.91
2018-08-07T17:45:35.167Z,1.69
2018-08-07T17:51:30.196Z,1.93
2018-08-07T17:57:25.249Z,2.61
2018-08-07T18:03:20.225Z,2.61
2018-08-07T18:09:15.238Z,3.65
2018-08-07T18:15:10.199Z,2.3
2018-08-07T18:21:05.243Z,2.44
2018-08-07T18:27:00.325Z,2.16
2018-08-07T18:32:55.207Z,2.28
2018-08-07T18:38:50.330Z,3.42
2018-08-07T18:44:45.303Z,2.45
2018-08-07T18:50:40.226Z,2.65
2018-08-07T18:56:35.234Z,2.65
2018-08-07T19:02:30.281Z,3.86
2018-08-07T19:08:25.259Z,3.64
2018-08-07T19:14:20.255Z,3.37
2018-08-07T19:20:15.259Z,2.94
2018-08-07T19:26:10.270Z,3.42
2018-08-07T19:32:05.308Z,3.25
2018-08-07T19:38:00.251Z,3.34
2018-08-07T19:43:55.256Z,3.38
2018-08-07T19:49:50.258Z,4.3
2018-08-07T19:55:45.310Z,4.47
2018-08-07T20:01:40.323Z,4.53
2018-08-07T20:07:35.266Z,4.89
2018-08-07T20:13:30.317Z,5.06
2018-08-07T20:19:25.312Z,4.67
2018-08-07T20:25:20.298Z,4.13
2018-08-07T20:31:15.267Z,5.44
2018-08-07T20:37:10.274Z,5.93
2018-08-07T20:43:05.289Z,4.62
2018-08-07T20:49:00.292Z,3.86
2018-08-07T20:54:55.392Z,3.78
2018-08-07T21:00:50.346Z,3.74
2018-08-07T21:06:45.296Z,4.15
2018-08-07T21:12:40.316Z,4.42
2018-08-07T21:18:35.332Z,4.67
2018-08-07T21:24:30.328Z,6.67
2018-08-07T21:30:25.383Z,7.38
2018-08-07T21:36:20.299Z,6.98
2018-08-07T21:42:15.328Z,6.98
2018-08-07T21:48:10.319Z,7.29
2018-08-07T21:54:05.329Z,7.32
2018-08-07T22:00:00.342Z,7.91
2018-08-07T22:05:55.380Z,6.77
2018-08-07T22:11:50.348Z,5.95
2018-08-07T22:17:45.389Z,5.04
2018-08-07T22:23:40.341Z,4.95
2018-08-07T22:29:35.377Z,5.74
2018-08-07T22:35:30.391Z,6.59
2018-08-07T22:41:25.346Z,6.4
2018-08-07T22:47:20.371Z,5.31
2018-08-07T22:53:15.352Z,5.64
2018-08-07T22:59:10.395Z,5.53
2018-08-07T23:05:05.365Z,6.97
2018-08-07T23:11:00.359Z,6.29
2018-08-07T23:16:55.378Z,6.9
2018-08-07T23:22:50.400Z,6.49
2018-08-07T23:28:45.401Z,6.5
2018-08-07T23:34:40.391Z,5.9
2018-08-07T23:40:35.389Z,6.14
2018-08-07T23:46:30.400Z,5.7
2018-08-07T23:52:25.415Z,5.31
2018-08-07T23:58:20.420Z,5.77
